createdAt,value
2022-10-02T00:10:28.833Z,1.76
2022-10-02T00:13:13.872Z,1.68
2022-10-02T00:15:49.509Z,1.64
2022-10-02T00:18:29.855Z,1.80
2022-10-02T00:21:15.133Z,1.63
2022-10-02T00:24:01.882Z,1.80
2022-10-02T00:37:35.872Z,1.58
2022-10-02T00:40:49.610Z,1.85
2022-10-02T00:43:47.866Z,1.62
2022-10-02T00:46:45.986Z,1.74
2022-10-02T00:49:50.858Z,1.67
2022-10-02T00:52:46.066Z,1.58
2022-10-02T01:05:40.821Z,1.55
2022-10-02T01:08:24.893Z,1.45
2022-10-02T01:11:06.300Z,1.65
2022-10-02T01:13:45.865Z,1.67
2022-10-02T01:16:19.290Z,1.68
2022-10-02T01:18:52.841Z,1.51
2022-10-02T01:32:03.883Z,1.70
2022-10-02T01:34:38.261Z,1.68
2022-10-02T01:37:11.878Z,1.79
2022-10-02T01:39:45.309Z,1.85
2022-10-02T01:42:18.882Z,1.84
2022-10-02T01:59:09.834Z,1.95
2022-10-02T02:02:08.921Z,2.05
2022-10-02T02:04:53.931Z,2.19
2022-10-02T02:07:44.881Z,2.05
2022-10-02T02:10:30.644Z,2.02
2022-10-02T02:13:21.715Z,2.15
2022-10-02T02:26:34.006Z,2.02
2022-10-02T02:29:10.544Z,1.98
2022-10-02T02:31:57.930Z,2.02
2022-10-02T02:34:38.513Z,2.01
2022-10-02T02:37:23.861Z,1.92
2022-10-02T02:50:57.852Z,1.90
2022-10-02T02:53:39.826Z,1.73
2022-10-02T02:56:25.839Z,1.84
2022-10-02T02:59:07.809Z,1.72
2022-10-02T03:01:48.897Z,1.82
2022-10-02T03:18:46.822Z,1.95
2022-10-02T03:21:36.840Z,1.80
2022-10-02T03:24:20.555Z,1.85
2022-10-02T03:27:12.839Z,1.98
2022-10-02T03:29:56.437Z,1.96
2022-10-02T03:32:39.841Z,1.92
2022-10-02T03:45:51.919Z,2.04
2022-10-02T03:48:25.376Z,1.89
2022-10-02T03:51:13.874Z,1.98
2022-10-02T03:53:46.907Z,1.94
2022-10-02T03:56:36.132Z,1.84
2022-10-02T04:13:27.808Z,2.08
2022-10-02T04:16:18.522Z,2.22
2022-10-02T04:19:02.081Z,2.02
2022-10-02T04:21:51.822Z,2.11
2022-10-02T04:24:33.310Z,1.98
2022-10-02T04:27:24.839Z,1.97
2022-10-02T04:37:53.809Z,2.13
2022-10-02T04:41:00.848Z,2.26
2022-10-02T04:43:59.189Z,1.99
2022-10-02T04:47:08.857Z,2.17
2022-10-02T04:50:10.295Z,2.27
2022-10-02T04:53:30.850Z,2.17
2022-10-02T05:07:06.838Z,2.09
2022-10-02T05:09:59.705Z,2.34
2022-10-02T05:13:08.825Z,2.14
2022-10-02T05:16:00.902Z,2.12
2022-10-02T05:32:59.838Z,1.94
2022-10-02T05:36:19.720Z,2.42
2022-10-02T05:39:13.822Z,2.08
2022-10-02T05:42:01.057Z,2.36
2022-10-02T05:44:46.818Z,2.09
2022-10-02T05:47:29.856Z,2.02
2022-10-02T06:00:35.818Z,2.17
2022-10-02T06:03:28.825Z,2.10
2022-10-02T06:06:12.216Z,2.08
2022-10-02T06:08:59.842Z,2.16
2022-10-02T06:11:41.893Z,2.26
2022-10-02T06:24:59.796Z,2.25
2022-10-02T06:27:49.881Z,2.23
2022-10-02T06:30:23.314Z,2.08
2022-10-02T06:33:03.847Z,2.27
2022-10-02T06:35:59.201Z,2.17
2022-10-02T06:39:07.846Z,2.27
2022-10-02T06:52:40.862Z,2.35
2022-10-02T06:55:36.125Z,2.53
2022-10-02T06:58:39.852Z,2.41
2022-10-02T07:01:30.698Z,2.34
2022-10-02T07:04:34.806Z,2.50
2022-10-02T07:07:35.670Z,2.46
2022-10-02T07:20:46.786Z,2.75
2022-10-02T07:23:57.793Z,2.96
2022-10-02T07:26:49.012Z,3.01
2022-10-02T07:29:46.818Z,3.12
2022-10-02T07:32:44.241Z,3.01
2022-10-02T07:45:45.821Z,3.09
2022-10-02T07:48:47.806Z,3.35
2022-10-02T07:51:34.898Z,3.27
2022-10-02T07:54:39.834Z,3.29
2022-10-02T07:57:28.350Z,3.13
2022-10-02T08:13:58.820Z,3.09
2022-10-02T08:16:40.746Z,3.39
2022-10-02T08:19:25.809Z,3.25
2022-10-02T08:22:17.273Z,3.39
2022-10-02T08:25:03.699Z,3.23
2022-10-02T08:27:53.372Z,3.07
2022-10-02T08:41:53.771Z,3.36
2022-10-02T08:45:11.815Z,3.24
2022-10-02T08:48:21.510Z,3.15
2022-10-02T08:51:41.826Z,3.42
2022-10-02T09:05:39.835Z,3.00
2022-10-02T09:09:09.062Z,3.13
2022-10-02T09:12:20.818Z,3.18
2022-10-02T09:15:14.094Z,3.21
2022-10-02T09:18:22.806Z,3.16
2022-10-02T09:32:14.833Z,3.05
2022-10-02T09:35:32.483Z,3.07
2022-10-02T09:39:02.827Z,3.17
2022-10-02T09:42:23.373Z,3.01
2022-10-02T09:46:00.859Z,2.77
2022-10-02T09:49:13.031Z,2.79
2022-10-02T09:59:21.794Z,2.63
2022-10-02T10:02:28.905Z,2.66
2022-10-02T10:06:03.812Z,2.81
2022-10-02T10:09:18.433Z,2.75
2022-10-02T10:12:34.823Z,2.88
2022-10-02T10:26:49.992Z,2.27
2022-10-02T10:29:56.304Z,2.39
2022-10-02T10:33:28.814Z,2.53
2022-10-02T10:36:46.640Z,2.47
2022-10-02T10:53:40.819Z,2.21
2022-10-02T10:56:37.802Z,2.50
2022-10-02T11:03:32.046Z,2.37
2022-10-02T11:07:05.802Z,2.27
2022-10-02T11:20:41.882Z,2.33
2022-10-02T11:23:42.410Z,2.30
2022-10-02T11:26:45.836Z,2.34
2022-10-02T11:30:05.890Z,2.53
2022-10-02T11:33:29.343Z,2.27
2022-10-02T11:47:16.835Z,2.08
2022-10-02T11:50:37.796Z,2.31
2022-10-02T11:53:56.622Z,2.13
2022-10-02T11:57:05.493Z,2.19
2022-10-02T12:14:05.803Z,2.37
2022-10-02T12:17:12.939Z,2.42
2022-10-02T12:20:11.830Z,2.10
2022-10-02T12:23:10.963Z,2.40
2022-10-02T12:26:00.798Z,2.35
2022-10-02T12:28:45.932Z,2.10
2022-10-02T12:42:07.766Z,2.17
2022-10-02T12:45:42.821Z,1.85
2022-10-02T12:48:42.941Z,2.12
2022-10-02T12:51:44.826Z,1.80
2022-10-02T13:08:50.770Z,1.94
2022-10-02T13:11:52.427Z,1.80
2022-10-02T13:15:08.027Z,1.84
2022-10-02T13:18:01.818Z,1.82
2022-10-02T13:35:16.751Z,1.68
2022-10-02T13:38:19.814Z,1.65
2022-10-02T13:41:12.915Z,1.48
2022-10-02T13:44:10.309Z,1.38
2022-10-02T13:47:12.525Z,1.48
2022-10-02T14:00:27.762Z,1.47
2022-10-02T14:03:23.857Z,1.42
2022-10-02T14:06:09.414Z,1.50
2022-10-02T14:09:21.835Z,1.57
2022-10-02T14:12:18.643Z,1.54
2022-10-02T14:29:11.825Z,1.30
2022-10-02T14:32:22.269Z,1.29
2022-10-02T14:35:33.822Z,1.46
2022-10-02T14:38:34.870Z,1.23
2022-10-02T14:41:52.803Z,1.24
2022-10-02T14:55:32.799Z,1.63
2022-10-02T14:58:29.571Z,1.58
2022-10-02T15:01:26.898Z,1.61
2022-10-02T15:04:34.981Z,1.65
2022-10-02T15:07:18.824Z,1.79
2022-10-02T15:20:53.807Z,2.10
2022-10-02T15:23:43.690Z,1.85
2022-10-02T15:26:51.798Z,2.08
2022-10-02T15:29:50.342Z,2.06
2022-10-02T15:33:11.225Z,1.86
2022-10-02T15:46:42.816Z,2.36
2022-10-02T15:49:36.047Z,2.43
2022-10-02T15:52:32.658Z,2.50
2022-10-02T15:55:21.135Z,2.51
2022-10-02T15:58:25.779Z,2.73
2022-10-02T16:01:28.626Z,2.74
2022-10-02T16:14:18.773Z,2.42
2022-10-02T16:17:32.789Z,2.52
2022-10-02T16:20:50.782Z,2.38
2022-10-02T16:24:06.818Z,2.43
2022-10-02T16:27:32.954Z,2.45
2022-10-02T16:40:44.769Z,2.48
2022-10-02T16:44:05.777Z,2.43
2022-10-02T16:46:47.189Z,2.60
2022-10-02T16:49:38.794Z,2.48
2022-10-02T16:52:22.437Z,2.63
2022-10-02T17:08:51.873Z,2.78
2022-10-02T17:11:31.465Z,2.75
2022-10-02T17:14:24.799Z,2.56
2022-10-02T17:17:10.290Z,2.40
2022-10-02T17:19:58.782Z,2.49
2022-10-02T17:22:40.943Z,2.32
2022-10-02T17:35:49.745Z,2.44
2022-10-02T17:38:55.808Z,2.47
2022-10-02T17:41:52.026Z,2.51
2022-10-02T17:44:50.803Z,2.51
2022-10-02T17:47:47.246Z,2.47
2022-10-02T18:01:01.845Z,2.64
2022-10-02T18:04:08.796Z,2.65
2022-10-02T18:07:09.160Z,2.70
2022-10-02T18:10:07.817Z,2.48
2022-10-02T18:13:05.826Z,2.66
2022-10-02T18:30:08.829Z,2.47
2022-10-02T18:33:22.649Z,2.40
2022-10-02T18:36:23.804Z,2.27
2022-10-02T18:39:12.071Z,2.40
2022-10-02T18:42:31.822Z,2.19
2022-10-02T18:56:15.800Z,1.92
2022-10-02T18:59:14.312Z,1.76
2022-10-02T19:02:14.049Z,1.98
2022-10-02T19:05:19.606Z,1.84
2022-10-02T19:08:18.793Z,1.86
2022-10-02T19:21:30.775Z,1.84
2022-10-02T19:24:10.791Z,1.85
2022-10-02T19:26:55.804Z,1.85
2022-10-02T19:29:35.406Z,1.74
2022-10-02T19:32:24.795Z,1.81
2022-10-02T19:49:06.766Z,1.97
2022-10-02T19:51:52.772Z,2.06
2022-10-02T19:54:36.666Z,2.13
2022-10-02T19:57:22.780Z,2.11
2022-10-02T20:00:07.635Z,2.32
2022-10-02T20:02:57.047Z,2.40
2022-10-02T20:16:22.832Z,2.41
2022-10-02T20:19:03.194Z,2.60
2022-10-02T20:21:48.577Z,2.38
2022-10-02T20:24:36.125Z,2.37
2022-10-02T20:27:24.782Z,2.69
2022-10-02T20:41:00.785Z,2.76
2022-10-02T20:43:42.353Z,2.50
2022-10-02T20:47:12.802Z,2.71
2022-10-02T20:50:34.455Z,2.61
2022-10-02T20:54:08.811Z,2.64
2022-10-02T21:08:04.655Z,2.29
2022-10-02T21:11:38.936Z,2.43
2022-10-02T21:14:57.765Z,2.43
2022-10-02T21:18:07.070Z,2.35
2022-10-02T21:21:25.797Z,2.29
2022-10-02T21:35:08.757Z,2.13
2022-10-02T21:38:02.435Z,2.21
2022-10-02T21:41:36.048Z,2.16
2022-10-02T21:45:05.939Z,1.89
2022-10-02T21:48:32.754Z,1.93
2022-10-02T22:02:48.781Z,1.99
2022-10-02T22:06:05.231Z,2.17
2022-10-02T22:09:09.278Z,2.04
2022-10-02T22:12:01.181Z,2.13
2022-10-02T22:28:39.774Z,2.17
2022-10-02T22:31:46.869Z,2.28
2022-10-02T22:34:52.776Z,2.40
2022-10-02T22:37:58.018Z,2.42
2022-10-02T22:40:52.758Z,2.88
2022-10-02T22:43:40.751Z,2.49
2022-10-02T22:56:44.759Z,2.27
2022-10-02T22:59:35.795Z,2.44
2022-10-02T23:02:20.227Z,2.47
2022-10-02T23:05:10.760Z,2.39
2022-10-02T23:07:52.615Z,2.51
2022-10-02T23:21:34.746Z,2.64
2022-10-02T23:27:12.518Z,2.54
2022-10-02T23:30:05.781Z,2.40
2022-10-02T23:32:48.159Z,2.59
2022-10-02T23:35:39.777Z,2.43
2022-10-02T23:38:20.509Z,2.43
2022-10-02T23:48:16.781Z,2.36
2022-10-02T23:51:03.999Z,2.29
2022-10-02T23:54:10.777Z,2.39
2022-10-02T23:57:20.194Z,2.39
